sensor_id;sensor_type;location;lat;lon;timestamp;pressure;altitude;pressure_sealevel;temperature;humidity
11643;BME280;5877;50.930;6.918;2023-06-14T00:01:09;100633.09;;;18.60;39.60
11643;BME280;5877;50.930;6.918;2023-06-14T00:06:05;100663.97;;;18.76;40.62
11643;BME280;5877;50.930;6.918;2023-06-14T00:10:57;100719.06;;;18.96;41.62
11643;BME280;5877;50.930;6.918;2023-06-14T00:15:50;100633.28;;;18.33;42.26
11643;BME280;5877;50.930;6.918;2023-06-14T00:20:50;100721.94;;;18.69;42.70
11643;BME280;5877;50.930;6.918;2023-06-14T00:25:44;100724.25;;;18.55;43.40
11643;BME280;5877;50.930;6.918;2023-06-14T00:30:36;100721.84;;;18.48;43.36
11643;BME280;5877;50.930;6.918;2023-06-14T00:35:29;100734.03;;;18.39;43.18
11643;BME280;5877;50.930;6.918;2023-06-14T00:40:22;100734.50;;;18.26;42.67
11643;BME280;5877;50.930;6.918;2023-06-14T00:45:15;100736.94;;;18.33;42.74
11643;BME280;5877;50.930;6.918;2023-06-14T00:50:07;100742.00;;;18.34;42.68
11643;BME280;5877;50.930;6.918;2023-06-14T00:55:01;100693.53;;;18.07;42.75
11643;BME280;5877;50.930;6.918;2023-06-14T00:59:53;100750.75;;;18.35;42.67
11643;BME280;5877;50.930;6.918;2023-06-14T01:04:52;100700.47;;;18.08;41.34
11643;BME280;5877;50.930;6.918;2023-06-14T01:15:05;100757.22;;;18.54;40.87
11643;BME280;5877;50.930;6.918;2023-06-14T01:20:03;100759.06;;;18.54;41.19
11643;BME280;5877;50.930;6.918;2023-06-14T01:25:03;100694.59;;;18.06;42.42
11643;BME280;5877;50.930;6.918;2023-06-14T01:29:56;100700.69;;;18.01;42.34
11643;BME280;5877;50.930;6.918;2023-06-14T01:34:53;100641.03;;;17.30;43.49
11643;BME280;5877;50.930;6.918;2023-06-14T01:39:48;100761.41;;;17.82;44.60
11643;BME280;5877;50.930;6.918;2023-06-14T01:44:47;100658.91;;;17.07;44.83
11643;BME280;5877;50.930;6.918;2023-06-14T01:49:39;100737.84;;;17.27;45.51
11643;BME280;5877;50.930;6.918;2023-06-14T01:54:34;100775.19;;;17.47;44.71
11643;BME280;5877;50.930;6.918;2023-06-14T01:59:26;100748.41;;;17.54;42.38
11643;BME280;5877;50.930;6.918;2023-06-14T02:04:22;100662.13;;;17.09;42.40
11643;BME280;5877;50.930;6.918;2023-06-14T02:09:14;100761.84;;;17.69;42.46
11643;BME280;5877;50.930;6.918;2023-06-14T02:14:07;100769.16;;;17.57;42.63
11643;BME280;5877;50.930;6.918;2023-06-14T02:19:03;100694.53;;;17.16;43.15
11643;BME280;5877;50.930;6.918;2023-06-14T02:23:56;100770.16;;;17.51;43.36
11643;BME280;5877;50.930;6.918;2023-06-14T02:28:48;100777.69;;;17.32;43.64
11643;BME280;5877;50.930;6.918;2023-06-14T02:33:44;100721.66;;;16.97;44.05
11643;BME280;5877;50.930;6.918;2023-06-14T02:38:37;100778.31;;;17.12;45.76
11643;BME280;5877;50.930;6.918;2023-06-14T02:43:29;100783.00;;;17.05;45.63
11643;BME280;5877;50.930;6.918;2023-06-14T02:48:24;100762.34;;;16.80;45.74
11643;BME280;5877;50.930;6.918;2023-06-14T02:53:19;100705.34;;;16.34;46.17
11643;BME280;5877;50.930;6.918;2023-06-14T02:58:11;100790.38;;;16.76;46.88
11643;BME280;5877;50.930;6.918;2023-06-14T03:03:06;100695.84;;;16.16;47.11
11643;BME280;5877;50.930;6.918;2023-06-14T03:08:06;100771.06;;;16.59;47.40
11643;BME280;5877;50.930;6.918;2023-06-14T03:12:59;100806.78;;;16.73;47.04
11643;BME280;5877;50.930;6.918;2023-06-14T03:17:53;100749.81;;;16.32;47.56
11643;BME280;5877;50.930;6.918;2023-06-14T03:22:46;100782.47;;;16.60;46.66
11643;BME280;5877;50.930;6.918;2023-06-14T03:27:40;100752.53;;;16.37;47.13
11643;BME280;5877;50.930;6.918;2023-06-14T03:32:34;100766.38;;;16.44;46.92
11643;BME280;5877;50.930;6.918;2023-06-14T03:37:29;100773.34;;;16.50;48.60
11643;BME280;5877;50.930;6.918;2023-06-14T03:42:24;100771.97;;;16.65;49.72
11643;BME280;5877;50.930;6.918;2023-06-14T03:47:19;100802.78;;;16.71;49.12
11643;BME280;5877;50.930;6.918;2023-06-14T03:52:11;100758.81;;;16.53;49.35
11643;BME280;5877;50.930;6.918;2023-06-14T03:57:07;100796.59;;;16.87;47.98
11643;BME280;5877;50.930;6.918;2023-06-14T04:01:59;100756.13;;;16.70;48.31
11643;BME280;5877;50.930;6.918;2023-06-14T04:06:52;100831.81;;;17.31;46.56
11643;BME280;5877;50.930;6.918;2023-06-14T04:11:45;100778.34;;;17.17;45.48
11643;BME280;5877;50.930;6.918;2023-06-14T04:16:37;100856.41;;;17.75;44.56
11643;BME280;5877;50.930;6.918;2023-06-14T04:21:31;100807.31;;;17.51;42.55
11643;BME280;5877;50.930;6.918;2023-06-14T04:26:27;100800.50;;;17.60;42.71
11643;BME280;5877;50.930;6.918;2023-06-14T04:31:23;100647.97;;;16.99;41.41
11643;BME280;5877;50.930;6.918;2023-06-14T04:36:19;100765.44;;;17.90;41.15
11643;BME280;5877;50.930;6.918;2023-06-14T04:41:13;100836.53;;;18.67;40.65
11643;BME280;5877;50.930;6.918;2023-06-14T04:46:07;100847.75;;;22.00;34.36
11643;BME280;5877;50.930;6.918;2023-06-14T04:51:03;100794.81;;;24.50;30.17
11643;BME280;5877;50.930;6.918;2023-06-14T04:55:55;100768.38;;;25.82;27.87
11643;BME280;5877;50.930;6.918;2023-06-14T05:00:48;100855.31;;;26.88;26.52
11643;BME280;5877;50.930;6.918;2023-06-14T05:05:41;100797.72;;;28.17;24.69
11643;BME280;5877;50.930;6.918;2023-06-14T05:10:33;100874.72;;;29.98;22.25
11643;BME280;5877;50.930;6.918;2023-06-14T05:15:27;100890.09;;;31.04;21.14
11643;BME280;5877;50.930;6.918;2023-06-14T05:20:23;100884.78;;;31.20;21.28
11643;BME280;5877;50.930;6.918;2023-06-14T05:25:18;100882.41;;;31.62;20.53
11643;BME280;5877;50.930;6.918;2023-06-14T05:30:10;100782.22;;;30.57;20.46
11643;BME280;5877;50.930;6.918;2023-06-14T05:35:09;100832.06;;;31.49;19.87
11643;BME280;5877;50.930;6.918;2023-06-14T05:40:03;100770.53;;;30.81;19.85
11643;BME280;5877;50.930;6.918;2023-06-14T05:44:57;100899.97;;;30.35;21.00
11643;BME280;5877;50.930;6.918;2023-06-14T05:49:49;100870.06;;;30.68;20.69
11643;BME280;5877;50.930;6.918;2023-06-14T05:54:42;100827.81;;;30.80;20.46
11643;BME280;5877;50.930;6.918;2023-06-14T05:59:34;100889.78;;;31.89;19.92
11643;BME280;5877;50.930;6.918;2023-06-14T06:04:26;100897.47;;;34.24;17.53
11643;BME280;5877;50.930;6.918;2023-06-14T06:09:19;100894.31;;;32.80;19.19
11643;BME280;5877;50.930;6.918;2023-06-14T06:14:11;100925.97;;;32.09;19.59
11643;BME280;5877;50.930;6.918;2023-06-14T06:19:03;100905.56;;;31.04;20.68
11643;BME280;5877;50.930;6.918;2023-06-14T06:23:56;100921.72;;;34.52;17.35
11643;BME280;5877;50.930;6.918;2023-06-14T06:28:48;100918.75;;;34.15;17.92
11643;BME280;5877;50.930;6.918;2023-06-14T06:33:41;100913.94;;;34.54;17.08
11643;BME280;5877;50.930;6.918;2023-06-14T06:38:33;100814.31;;;35.24;16.43
11643;BME280;5877;50.930;6.918;2023-06-14T06:43:27;100910.44;;;34.08;17.80
11643;BME280;5877;50.930;6.918;2023-06-14T06:48:26;100943.31;;;33.53;18.30
11643;BME280;5877;50.930;6.918;2023-06-14T06:53:20;100917.56;;;34.35;17.30
11643;BME280;5877;50.930;6.918;2023-06-14T06:58:30;100915.88;;;36.65;15.63
11643;BME280;5877;50.930;6.918;2023-06-14T07:03:22;100924.22;;;37.95;14.23
11643;BME280;5877;50.930;6.918;2023-06-14T07:08:15;100948.16;;;38.30;14.51
11643;BME280;5877;50.930;6.918;2023-06-14T07:13:09;100850.63;;;37.97;14.00
11643;BME280;5877;50.930;6.918;2023-06-14T07:18:04;100861.16;;;36.03;14.89
11643;BME280;5877;50.930;6.918;2023-06-14T07:22:59;100905.56;;;37.03;14.78
11643;BME280;5877;50.930;6.918;2023-06-14T07:27:52;100954.44;;;38.23;14.36
11643;BME280;5877;50.930;6.918;2023-06-14T07:32:44;100915.19;;;38.76;13.34
11643;BME280;5877;50.930;6.918;2023-06-14T07:37:38;100914.19;;;37.12;15.18
11643;BME280;5877;50.930;6.918;2023-06-14T07:42:31;100932.06;;;38.00;14.40
11643;BME280;5877;50.930;6.918;2023-06-14T07:47:24;100919.94;;;38.29;13.74
11643;BME280;5877;50.930;6.918;2023-06-14T07:52:19;100853.50;;;36.27;15.22
11643;BME280;5877;50.930;6.918;2023-06-14T07:57:11;100890.16;;;37.89;14.06
11643;BME280;5877;50.930;6.918;2023-06-14T08:02:04;100930.53;;;38.59;13.14
11643;BME280;5877;50.930;6.918;2023-06-14T08:06:56;100934.94;;;39.48;12.04
11643;BME280;5877;50.930;6.918;2023-06-14T08:11:48;100918.97;;;39.84;12.19
11643;BME280;5877;50.930;6.918;2023-06-14T08:16:41;100932.47;;;38.66;12.41
11643;BME280;5877;50.930;6.918;2023-06-14T08:21:33;100910.25;;;39.34;11.67
11643;BME280;5877;50.930;6.918;2023-06-14T08:26:30;100907.78;;;38.55;11.98
11643;BME280;5877;50.930;6.918;2023-06-14T08:31:25;100936.78;;;38.71;11.92
11643;BME280;5877;50.930;6.918;2023-06-14T08:36:19;100921.81;;;37.61;12.06
11643;BME280;5877;50.930;6.918;2023-06-14T08:41:12;100931.69;;;38.66;11.14
11643;BME280;5877;50.930;6.918;2023-06-14T08:46:08;100928.41;;;37.39;12.16
11643;BME280;5877;50.930;6.918;2023-06-14T08:51:05;100908.97;;;38.61;11.54
11643;BME280;5877;50.930;6.918;2023-06-14T08:55:59;100902.22;;;38.87;10.93
11643;BME280;5877;50.930;6.918;2023-06-14T09:00:57;100910.53;;;39.57;10.74
11643;BME280;5877;50.930;6.918;2023-06-14T09:05:51;100917.56;;;37.85;11.65
11643;BME280;5877;50.930;6.918;2023-06-14T09:10:46;100905.56;;;37.03;12.62
11643;BME280;5877;50.930;6.918;2023-06-14T09:15:39;100894.34;;;35.65;13.21
11643;BME280;5877;50.930;6.918;2023-06-14T09:20:32;100916.75;;;36.22;13.07
11643;BME280;5877;50.930;6.918;2023-06-14T09:25:25;100922.72;;;34.93;14.77
11643;BME280;5877;50.930;6.918;2023-06-14T09:30:30;100912.03;;;35.11;13.69
11643;BME280;5877;50.930;6.918;2023-06-14T09:35:23;100903.81;;;34.55;14.41
11643;BME280;5877;50.930;6.918;2023-06-14T09:40:20;100908.88;;;35.09;14.12
11643;BME280;5877;50.930;6.918;2023-06-14T09:45:15;100936.63;;;35.14;14.32
11643;BME280;5877;50.930;6.918;2023-06-14T09:50:13;100914.50;;;34.40;14.53
11643;BME280;5877;50.930;6.918;2023-06-14T09:55:12;100847.13;;;34.67;14.04
11643;BME280;5877;50.930;6.918;2023-06-14T10:00:05;100929.34;;;33.97;14.87
11643;BME280;5877;50.930;6.918;2023-06-14T10:05:07;100869.66;;;33.27;15.55
11643;BME280;5877;50.930;6.918;2023-06-14T10:10:06;100949.56;;;32.52;16.35
11643;BME280;5877;50.930;6.918;2023-06-14T10:15:03;100934.28;;;31.45;17.48
11643;BME280;5877;50.930;6.918;2023-06-14T10:20:19;100849.16;;;28.59;19.84
11643;BME280;5877;50.930;6.918;2023-06-14T10:25:26;100428.59;;;25.70;20.41
11643;BME280;5877;50.930;6.918;2023-06-14T10:30:25;100907.13;;;28.32;20.84
11643;BME280;5877;50.930;6.918;2023-06-14T10:35:17;100864.06;;;27.45;21.87
11643;BME280;5877;50.930;6.918;2023-06-14T10:40:29;100831.84;;;26.89;22.44
11643;BME280;5877;50.930;6.918;2023-06-14T10:45:24;100919.28;;;27.65;22.54
11643;BME280;5877;50.930;6.918;2023-06-14T10:50:16;100881.53;;;27.39;23.04
11643;BME280;5877;50.930;6.918;2023-06-14T10:55:13;100914.84;;;27.43;22.47
11643;BME280;5877;50.930;6.918;2023-06-14T11:00:13;100849.44;;;26.95;22.50
11643;BME280;5877;50.930;6.918;2023-06-14T11:05:10;100832.06;;;27.01;21.85
11643;BME280;5877;50.930;6.918;2023-06-14T11:15:13;100706.75;;;25.33;23.36
11643;BME280;5877;50.930;6.918;2023-06-14T11:20:10;100920.75;;;26.89;23.12
11643;BME280;5877;50.930;6.918;2023-06-14T11:25:03;100868.69;;;26.23;24.85
11643;BME280;5877;50.930;6.918;2023-06-14T11:29:56;100876.44;;;26.46;24.17
11643;BME280;5877;50.930;6.918;2023-06-14T11:34:51;100907.56;;;27.70;24.01
11643;BME280;5877;50.930;6.918;2023-06-14T11:39:46;100807.91;;;26.21;25.27
11643;BME280;5877;50.930;6.918;2023-06-14T11:44:40;100888.78;;;26.47;26.00
11643;BME280;5877;50.930;6.918;2023-06-14T11:49:41;100880.06;;;26.99;25.68
11643;BME280;5877;50.930;6.918;2023-06-14T11:54:35;100902.78;;;27.32;25.53
11643;BME280;5877;50.930;6.918;2023-06-14T11:59:28;100910.38;;;27.56;25.42
11643;BME280;5877;50.930;6.918;2023-06-14T12:04:26;100760.84;;;26.59;25.65
11643;BME280;5877;50.930;6.918;2023-06-14T12:09:19;100791.09;;;25.45;26.96
11643;BME280;5877;50.930;6.918;2023-06-14T12:14:21;100820.66;;;25.68;27.21
11643;BME280;5877;50.930;6.918;2023-06-14T12:19:19;100722.03;;;25.54;25.19
11643;BME280;5877;50.930;6.918;2023-06-14T12:24:13;100907.94;;;26.94;25.69
11643;BME280;5877;50.930;6.918;2023-06-14T12:29:05;100912.47;;;26.68;25.56
11643;BME280;5877;50.930;6.918;2023-06-14T12:33:58;100922.81;;;26.43;25.73
11643;BME280;5877;50.930;6.918;2023-06-14T12:38:51;100910.78;;;25.87;26.00
11643;BME280;5877;50.930;6.918;2023-06-14T12:43:45;100865.22;;;26.22;25.31
11643;BME280;5877;50.930;6.918;2023-06-14T12:48:37;100715.75;;;25.06;26.39
11643;BME280;5877;50.930;6.918;2023-06-14T12:53:30;100889.03;;;26.06;26.31
11643;BME280;5877;50.930;6.918;2023-06-14T12:58:23;100911.78;;;26.53;26.17
11643;BME280;5877;50.930;6.918;2023-06-14T13:03:15;100912.94;;;27.53;25.04
11643;BME280;5877;50.930;6.918;2023-06-14T13:08:08;100920.66;;;27.11;25.42
11643;BME280;5877;50.930;6.918;2023-06-14T13:13:00;100840.63;;;27.03;25.10
11643;BME280;5877;50.930;6.918;2023-06-14T13:17:53;100915.31;;;27.45;24.66
11643;BME280;5877;50.930;6.918;2023-06-14T13:22:45;100897.31;;;26.41;25.40
11643;BME280;5877;50.930;6.918;2023-06-14T13:27:39;100928.78;;;26.32;26.06
11643;BME280;5877;50.930;6.918;2023-06-14T13:32:32;100759.78;;;25.72;25.43
11643;BME280;5877;50.930;6.918;2023-06-14T13:37:25;100908.00;;;26.63;25.61
11643;BME280;5877;50.930;6.918;2023-06-14T13:42:17;100787.88;;;25.88;25.40
11643;BME280;5877;50.930;6.918;2023-06-14T13:47:10;100882.50;;;26.30;25.62
11643;BME280;5877;50.930;6.918;2023-06-14T13:52:02;100924.34;;;26.67;25.56
11643;BME280;5877;50.930;6.918;2023-06-14T13:56:54;100905.41;;;26.49;25.43
11643;BME280;5877;50.930;6.918;2023-06-14T14:01:49;100924.19;;;26.72;25.32
11643;BME280;5877;50.930;6.918;2023-06-14T14:06:41;100766.41;;;25.21;25.60
11643;BME280;5877;50.930;6.918;2023-06-14T14:11:34;100910.16;;;26.44;25.10
11643;BME280;5877;50.930;6.918;2023-06-14T14:16:26;100857.28;;;26.17;25.41
11643;BME280;5877;50.930;6.918;2023-06-14T14:21:19;100770.63;;;25.89;24.84
11643;BME280;5877;50.930;6.918;2023-06-14T14:26:12;100903.78;;;26.09;25.03
11643;BME280;5877;50.930;6.918;2023-06-14T14:31:07;100872.75;;;26.34;25.17
11643;BME280;5877;50.930;6.918;2023-06-14T14:36:01;100931.06;;;26.95;24.98
11643;BME280;5877;50.930;6.918;2023-06-14T14:40:58;100914.63;;;26.97;25.16
11643;BME280;5877;50.930;6.918;2023-06-14T14:45:49;100908.84;;;26.10;25.61
11643;BME280;5877;50.930;6.918;2023-06-14T14:50:41;100916.47;;;26.88;25.38
11643;BME280;5877;50.930;6.918;2023-06-14T14:55:35;100941.47;;;26.79;25.16
11643;BME280;5877;50.930;6.918;2023-06-14T15:00:31;100883.84;;;25.79;26.30
11643;BME280;5877;50.930;6.918;2023-06-14T15:05:27;100936.34;;;26.61;25.51
11643;BME280;5877;50.930;6.918;2023-06-14T15:10:20;100835.75;;;25.77;25.59
11643;BME280;5877;50.930;6.918;2023-06-14T15:15:14;100838.22;;;26.36;25.12
11643;BME280;5877;50.930;6.918;2023-06-14T15:20:07;100906.53;;;26.97;24.96
11643;BME280;5877;50.930;6.918;2023-06-14T15:25:00;100810.53;;;26.35;25.12
11643;BME280;5877;50.930;6.918;2023-06-14T15:29:52;100918.75;;;26.01;26.29
11643;BME280;5877;50.930;6.918;2023-06-14T15:34:48;100923.69;;;25.41;26.74
11643;BME280;5877;50.930;6.918;2023-06-14T15:39:40;100906.16;;;25.43;27.07
11643;BME280;5877;50.930;6.918;2023-06-14T15:44:32;100868.25;;;25.09;26.60
11643;BME280;5877;50.930;6.918;2023-06-14T15:49:24;100899.53;;;25.27;26.23
11643;BME280;5877;50.930;6.918;2023-06-14T15:54:17;100867.53;;;26.06;25.28
11643;BME280;5877;50.930;6.918;2023-06-14T15:59:11;100942.78;;;26.20;25.28
11643;BME280;5877;50.930;6.918;2023-06-14T16:04:03;100871.00;;;25.53;26.21
11643;BME280;5877;50.930;6.918;2023-06-14T16:08:55;100940.56;;;25.91;26.18
11643;BME280;5877;50.930;6.918;2023-06-14T16:13:47;100931.38;;;26.45;25.60
11643;BME280;5877;50.930;6.918;2023-06-14T16:18:40;100929.28;;;26.73;25.45
11643;BME280;5877;50.930;6.918;2023-06-14T16:23:33;100726.56;;;24.42;26.65
11643;BME280;5877;50.930;6.918;2023-06-14T16:28:25;100947.72;;;25.73;26.63
11643;BME280;5877;50.930;6.918;2023-06-14T16:33:19;100936.78;;;24.79;27.54
11643;BME280;5877;50.930;6.918;2023-06-14T16:38:11;100939.41;;;24.98;27.40
11643;BME280;5877;50.930;6.918;2023-06-14T16:43:05;100841.34;;;24.59;26.17
11643;BME280;5877;50.930;6.918;2023-06-14T16:47:58;100934.88;;;25.70;26.13
11643;BME280;5877;50.930;6.918;2023-06-14T16:52:50;100942.84;;;25.62;26.31
11643;BME280;5877;50.930;6.918;2023-06-14T16:57:42;100787.09;;;24.35;26.85
11643;BME280;5877;50.930;6.918;2023-06-14T17:02:34;100908.75;;;24.99;27.28
11643;BME280;5877;50.930;6.918;2023-06-14T17:07:27;100937.88;;;24.91;27.41
11643;BME280;5877;50.930;6.918;2023-06-14T17:12:19;100960.84;;;24.84;26.78
11643;BME280;5877;50.930;6.918;2023-06-14T17:17:13;100962.03;;;24.64;27.26
11643;BME280;5877;50.930;6.918;2023-06-14T17:22:05;100945.03;;;24.69;27.04
11643;BME280;5877;50.930;6.918;2023-06-14T17:26:57;100896.19;;;24.94;26.96
11643;BME280;5877;50.930;6.918;2023-06-14T17:31:49;100932.84;;;25.40;26.55
11643;BME280;5877;50.930;6.918;2023-06-14T17:36:43;100819.75;;;24.78;26.78
11643;BME280;5877;50.930;6.918;2023-06-14T17:41:36;100970.94;;;25.55;26.59
11643;BME280;5877;50.930;6.918;2023-06-14T17:46:28;100945.69;;;25.43;26.14
11643;BME280;5877;50.930;6.918;2023-06-14T17:51:22;100984.94;;;24.89;27.32
11643;BME280;5877;50.930;6.918;2023-06-14T17:56:14;100842.22;;;23.81;27.15
11643;BME280;5877;50.930;6.918;2023-06-14T18:01:08;100989.25;;;24.44;27.47
11643;BME280;5877;50.930;6.918;2023-06-14T18:05:59;100922.31;;;24.01;27.78
11643;BME280;5877;50.930;6.918;2023-06-14T18:10:55;100902.00;;;23.81;27.77
11643;BME280;5877;50.930;6.918;2023-06-14T18:15:48;100883.69;;;23.70;28.41
11643;BME280;5877;50.930;6.918;2023-06-14T18:20:42;101000.84;;;24.39;28.50
11643;BME280;5877;50.930;6.918;2023-06-14T18:25:34;100936.47;;;23.88;27.94
11643;BME280;5877;50.930;6.918;2023-06-14T18:30:27;100943.25;;;23.67;28.58
11643;BME280;5877;50.930;6.918;2023-06-14T18:35:19;101008.44;;;24.00;28.59
11643;BME280;5877;50.930;6.918;2023-06-14T18:40:12;100966.41;;;23.57;28.43
11643;BME280;5877;50.930;6.918;2023-06-14T18:45:05;101019.75;;;23.78;28.54
11643;BME280;5877;50.930;6.918;2023-06-14T18:50:00;101018.81;;;23.69;28.95
11643;BME280;5877;50.930;6.918;2023-06-14T18:54:52;100907.16;;;22.79;28.67
11643;BME280;5877;50.930;6.918;2023-06-14T18:59:44;100850.09;;;22.12;29.21
11643;BME280;5877;50.930;6.918;2023-06-14T19:04:37;101033.97;;;23.12;29.71
11643;BME280;5877;50.930;6.918;2023-06-14T19:09:29;100903.78;;;22.15;29.93
11643;BME280;5877;50.930;6.918;2023-06-14T19:14:21;101007.06;;;22.69;29.79
11643;BME280;5877;50.930;6.918;2023-06-14T19:19:14;101034.63;;;22.70;30.19
11643;BME280;5877;50.930;6.918;2023-06-14T19:24:07;100990.34;;;22.24;30.14
11643;BME280;5877;50.930;6.918;2023-06-14T19:29:08;101013.38;;;22.20;30.71
11643;BME280;5877;50.930;6.918;2023-06-14T19:34:02;100958.09;;;21.71;31.00
11643;BME280;5877;50.930;6.918;2023-06-14T19:38:55;100880.47;;;20.98;31.36
11643;BME280;5877;50.930;6.918;2023-06-14T19:43:48;101044.34;;;21.82;31.99
11643;BME280;5877;50.930;6.918;2023-06-14T19:48:41;101019.63;;;21.56;32.09
11643;BME280;5877;50.930;6.918;2023-06-14T19:53:33;101003.59;;;21.56;32.38
11643;BME280;5877;50.930;6.918;2023-06-14T19:58:28;101044.16;;;21.68;32.87
11643;BME280;5877;50.930;6.918;2023-06-14T20:03:20;101071.13;;;21.67;33.42
11643;BME280;5877;50.930;6.918;2023-06-14T20:08:13;101032.50;;;21.44;33.54
11643;BME280;5877;50.930;6.918;2023-06-14T20:13:12;101087.47;;;21.55;34.03
11643;BME280;5877;50.930;6.918;2023-06-14T20:18:04;101085.94;;;21.39;34.44
11643;BME280;5877;50.930;6.918;2023-06-14T20:22:56;101097.69;;;21.33;34.77
11643;BME280;5877;50.930;6.918;2023-06-14T20:27:49;101107.84;;;21.11;35.44
11643;BME280;5877;50.930;6.918;2023-06-14T20:32:42;101078.53;;;20.85;35.79
11643;BME280;5877;50.930;6.918;2023-06-14T20:37:34;101087.09;;;20.77;36.33
11643;BME280;5877;50.930;6.918;2023-06-14T20:42:28;101113.47;;;20.84;36.73
11643;BME280;5877;50.930;6.918;2023-06-14T20:47:22;101116.41;;;20.82;36.92
11643;BME280;5877;50.930;6.918;2023-06-14T20:52:14;101066.56;;;20.42;37.15
11643;BME280;5877;50.930;6.918;2023-06-14T20:57:11;100997.91;;;19.66;37.74
11643;BME280;5877;50.930;6.918;2023-06-14T21:02:10;101128.69;;;20.42;38.07
11643;BME280;5877;50.930;6.918;2023-06-14T21:07:08;101136.06;;;20.20;38.59
11643;BME280;5877;50.930;6.918;2023-06-14T21:12:00;100959.06;;;19.08;38.63
11643;BME280;5877;50.930;6.918;2023-06-14T21:16:53;101120.03;;;20.00;39.18
11643;BME280;5877;50.930;6.918;2023-06-14T21:21:47;101106.38;;;19.86;38.90
11643;BME280;5877;50.930;6.918;2023-06-14T21:26:39;101111.47;;;19.93;39.07
11643;BME280;5877;50.930;6.918;2023-06-14T21:31:31;101137.28;;;19.87;39.54
11643;BME280;5877;50.930;6.918;2023-06-14T21:36:25;101144.25;;;19.93;39.53
11643;BME280;5877;50.930;6.918;2023-06-14T21:41:19;101119.59;;;19.61;39.87
11643;BME280;5877;50.930;6.918;2023-06-14T21:46:11;101149.53;;;19.83;39.74
11643;BME280;5877;50.930;6.918;2023-06-14T21:51:03;101151.88;;;19.69;40.60
11643;BME280;5877;50.930;6.918;2023-06-14T21:55:55;101112.22;;;19.31;41.00
11643;BME280;5877;50.930;6.918;2023-06-14T22:00:48;101158.41;;;19.52;41.28
11643;BME280;5877;50.930;6.918;2023-06-14T22:05:40;101103.66;;;19.24;41.36
11643;BME280;5877;50.930;6.918;2023-06-14T22:10:32;101082.75;;;19.00;41.85
11643;BME280;5877;50.930;6.918;2023-06-14T22:15:25;101166.09;;;19.48;41.96
11643;BME280;5877;50.930;6.918;2023-06-14T22:20:19;101025.16;;;18.52;42.15
11643;BME280;5877;50.930;6.918;2023-06-14T22:25:11;101155.31;;;19.28;42.34
11643;BME280;5877;50.930;6.918;2023-06-14T22:30:05;101031.28;;;18.53;41.94
11643;BME280;5877;50.930;6.918;2023-06-14T22:34:58;101145.22;;;19.30;42.02
11643;BME280;5877;50.930;6.918;2023-06-14T22:39:53;101157.34;;;19.16;42.25
11643;BME280;5877;50.930;6.918;2023-06-14T22:44:47;101132.69;;;18.93;42.52
11643;BME280;5877;50.930;6.918;2023-06-14T22:49:43;101108.81;;;18.66;42.94
11643;BME280;5877;50.930;6.918;2023-06-14T22:54:58;101159.59;;;18.97;43.01
11643;BME280;5877;50.930;6.918;2023-06-14T22:59:50;101119.19;;;18.68;43.40
11643;BME280;5877;50.930;6.918;2023-06-14T23:04:48;101166.03;;;18.74;44.04
11643;BME280;5877;50.930;6.918;2023-06-14T23:09:42;101136.41;;;18.38;44.69
11643;BME280;5877;50.930;6.918;2023-06-14T23:14:34;101094.41;;;18.08;44.60
11643;BME280;5877;50.930;6.918;2023-06-14T23:19:29;101155.78;;;18.34;45.07
11643;BME280;5877;50.930;6.918;2023-06-14T23:24:21;101146.63;;;18.20;45.61
11643;BME280;5877;50.930;6.918;2023-06-14T23:29:14;101123.34;;;18.05;45.40
11643;BME280;5877;50.930;6.918;2023-06-14T23:34:11;101138.22;;;18.06;45.86
11643;BME280;5877;50.930;6.918;2023-06-14T23:39:05;101142.41;;;18.02;46.38
11643;BME280;5877;50.930;6.918;2023-06-14T23:44:00;101058.47;;;17.35;46.57
11643;BME280;5877;50.930;6.918;2023-06-14T23:48:54;101113.78;;;17.65;46.49
11643;BME280;5877;50.930;6.918;2023-06-14T23:53:48;101122.34;;;17.50;46.78
11643;BME280;5877;50.930;6.918;2023-06-14T23:58:44;101163.78;;;17.68;47.14
